DBQ weather

Dubuque Regional Airport
Dubuque, Iowa, United States

Public forecast

Using degrees Fahrenheit for public forecast. Weather courtesy of forecast.io.

METAR (pilot weather report)

Retrieved 2019/09/19 00:53 UTC (9 minutes ago):

KDBQ 190053Z 17005KT 10SM CLR 23/21 A3002 RMK AO2 SLP162 T02280211

TAF (pilot weather forecast)

Forecast is more than 12 hours old.

Retrieved 2019/09/18 00:22 UTC (1 day ago):

TAF KDBQ 182320Z 1900/1924 16011KT P6SM SCT040 BKN200 FM190100 17007KT P6SM BKN250 PROB30 1910/1915 4SM TSRA BKN035CB FM191500 18007KT 4SM TSRA BR BKN040CB